sensor_id;sensor_type;location;lat;lon;timestamp;P1;durP1;ratioP1;P2;durP2;ratioP2
15327;SDS011;7764;51.430;6.840;2023-01-28T00:00:36;18.03;;;13.87;;
15327;SDS011;7764;51.430;6.840;2023-01-28T00:03:03;18.10;;;13.23;;
15327;SDS011;7764;51.430;6.840;2023-01-28T00:05:29;17.83;;;12.17;;
15327;SDS011;7764;51.430;6.840;2023-01-28T00:07:56;18.07;;;13.23;;
15327;SDS011;7764;51.430;6.840;2023-01-28T00:10:23;18.33;;;13.27;;
15327;SDS011;7764;51.430;6.840;2023-01-28T00:12:50;17.67;;;12.30;;
15327;SDS011;7764;51.430;6.840;2023-01-28T00:15:17;23.50;;;15.37;;
15327;SDS011;7764;51.430;6.840;2023-01-28T00:17:45;21.47;;;14.87;;
15327;SDS011;7764;51.430;6.840;2023-01-28T00:20:12;23.77;;;15.50;;
15327;SDS011;7764;51.430;6.840;2023-01-28T00:22:39;24.87;;;16.87;;
15327;SDS011;7764;51.430;6.840;2023-01-28T00:25:06;22.47;;;15.40;;
15327;SDS011;7764;51.430;6.840;2023-01-28T00:27:33;22.47;;;15.67;;
15327;SDS011;7764;51.430;6.840;2023-01-28T00:29:59;21.37;;;16.00;;
15327;SDS011;7764;51.430;6.840;2023-01-28T00:32:26;21.57;;;14.30;;
15327;SDS011;7764;51.430;6.840;2023-01-28T00:34:55;23.60;;;16.53;;
15327;SDS011;7764;51.430;6.840;2023-01-28T00:37:21;22.67;;;15.67;;
15327;SDS011;7764;51.430;6.840;2023-01-28T00:39:48;24.53;;;16.10;;
15327;SDS011;7764;51.430;6.840;2023-01-28T00:42:15;24.00;;;17.20;;
15327;SDS011;7764;51.430;6.840;2023-01-28T00:44:42;24.70;;;16.23;;
15327;SDS011;7764;51.430;6.840;2023-01-28T00:47:09;26.63;;;17.50;;
15327;SDS011;7764;51.430;6.840;2023-01-28T00:49:36;25.70;;;18.70;;
15327;SDS011;7764;51.430;6.840;2023-01-28T00:52:04;24.80;;;17.40;;
15327;SDS011;7764;51.430;6.840;2023-01-28T00:54:31;25.37;;;17.27;;
15327;SDS011;7764;51.430;6.840;2023-01-28T00:56:58;23.23;;;15.90;;
15327;SDS011;7764;51.430;6.840;2023-01-28T00:59:24;23.40;;;16.50;;
15327;SDS011;7764;51.430;6.840;2023-01-28T01:01:52;24.23;;;17.53;;
15327;SDS011;7764;51.430;6.840;2023-01-28T01:04:18;23.00;;;16.70;;
15327;SDS011;7764;51.430;6.840;2023-01-28T01:06:50;24.23;;;16.57;;
15327;SDS011;7764;51.430;6.840;2023-01-28T01:09:19;24.53;;;17.50;;
15327;SDS011;7764;51.430;6.840;2023-01-28T01:11:46;23.90;;;16.80;;
15327;SDS011;7764;51.430;6.840;2023-01-28T01:14:13;24.13;;;17.67;;
15327;SDS011;7764;51.430;6.840;2023-01-28T01:16:40;22.97;;;17.23;;
15327;SDS011;7764;51.430;6.840;2023-01-28T01:19:07;24.07;;;17.50;;
15327;SDS011;7764;51.430;6.840;2023-01-28T01:21:34;23.93;;;17.60;;
15327;SDS011;7764;51.430;6.840;2023-01-28T01:24:00;24.60;;;17.23;;
15327;SDS011;7764;51.430;6.840;2023-01-28T01:26:29;23.77;;;17.93;;
15327;SDS011;7764;51.430;6.840;2023-01-28T01:28:55;24.30;;;17.60;;
15327;SDS011;7764;51.430;6.840;2023-01-28T01:31:22;23.00;;;17.17;;
15327;SDS011;7764;51.430;6.840;2023-01-28T01:33:50;24.90;;;18.20;;
15327;SDS011;7764;51.430;6.840;2023-01-28T01:36:17;22.33;;;15.80;;
15327;SDS011;7764;51.430;6.840;2023-01-28T01:38:45;20.13;;;14.37;;
15327;SDS011;7764;51.430;6.840;2023-01-28T01:41:23;18.13;;;12.17;;
15327;SDS011;7764;51.430;6.840;2023-01-28T01:43:55;12.23;;;9.13;;
15327;SDS011;7764;51.430;6.840;2023-01-28T01:46:25;11.70;;;8.47;;
15327;SDS011;7764;51.430;6.840;2023-01-28T01:48:59;11.33;;;8.07;;
15327;SDS011;7764;51.430;6.840;2023-01-28T01:51:32;11.00;;;7.53;;
15327;SDS011;7764;51.430;6.840;2023-01-28T01:54:00;12.27;;;8.10;;
15327;SDS011;7764;51.430;6.840;2023-01-28T01:56:29;10.57;;;7.87;;
15327;SDS011;7764;51.430;6.840;2023-01-28T01:59:01;11.87;;;8.03;;
15327;SDS011;7764;51.430;6.840;2023-01-28T02:01:30;12.20;;;8.47;;
15327;SDS011;7764;51.430;6.840;2023-01-28T02:04:00;13.00;;;8.27;;
15327;SDS011;7764;51.430;6.840;2023-01-28T02:06:31;12.67;;;8.83;;
15327;SDS011;7764;51.430;6.840;2023-01-28T02:08:59;11.27;;;8.23;;
15327;SDS011;7764;51.430;6.840;2023-01-28T02:11:28;12.17;;;7.83;;
15327;SDS011;7764;51.430;6.840;2023-01-28T02:13:58;12.70;;;8.20;;
15327;SDS011;7764;51.430;6.840;2023-01-28T02:16:28;14.00;;;8.87;;
15327;SDS011;7764;51.430;6.840;2023-01-28T02:18:57;11.23;;;8.03;;
15327;SDS011;7764;51.430;6.840;2023-01-28T02:27:18;15.13;;;10.23;;
15327;SDS011;7764;51.430;6.840;2023-01-28T02:29:52;15.33;;;10.50;;
15327;SDS011;7764;51.430;6.840;2023-01-28T02:32:24;15.43;;;11.10;;
15327;SDS011;7764;51.430;6.840;2023-01-28T02:34:58;15.53;;;10.53;;
15327;SDS011;7764;51.430;6.840;2023-01-28T02:37:33;17.73;;;11.97;;
15327;SDS011;7764;51.430;6.840;2023-01-28T02:40:05;15.93;;;11.93;;
15327;SDS011;7764;51.430;6.840;2023-01-28T02:42:36;18.10;;;12.83;;
15327;SDS011;7764;51.430;6.840;2023-01-28T02:45:10;16.63;;;10.93;;
15327;SDS011;7764;51.430;6.840;2023-01-28T02:47:43;18.80;;;13.40;;
15327;SDS011;7764;51.430;6.840;2023-01-28T02:50:25;15.80;;;10.67;;
15327;SDS011;7764;51.430;6.840;2023-01-28T02:53:02;15.67;;;11.33;;
15327;SDS011;7764;51.430;6.840;2023-01-28T02:55:56;14.10;;;10.60;;
15327;SDS011;7764;51.430;6.840;2023-01-28T02:58:34;16.03;;;11.73;;
15327;SDS011;7764;51.430;6.840;2023-01-28T03:01:09;15.03;;;11.23;;
15327;SDS011;7764;51.430;6.840;2023-01-28T03:03:45;16.13;;;11.30;;
15327;SDS011;7764;51.430;6.840;2023-01-28T03:06:21;14.97;;;11.30;;
15327;SDS011;7764;51.430;6.840;2023-01-28T03:08:52;15.47;;;10.43;;
15327;SDS011;7764;51.430;6.840;2023-01-28T03:11:39;16.83;;;10.67;;
15327;SDS011;7764;51.430;6.840;2023-01-28T03:14:25;15.60;;;11.20;;
15327;SDS011;7764;51.430;6.840;2023-01-28T03:17:14;16.50;;;11.07;;
15327;SDS011;7764;51.430;6.840;2023-01-28T03:20:01;14.17;;;10.80;;
15327;SDS011;7764;51.430;6.840;2023-01-28T03:22:47;16.47;;;11.10;;
15327;SDS011;7764;51.430;6.840;2023-01-28T03:25:36;13.63;;;9.67;;
15327;SDS011;7764;51.430;6.840;2023-01-28T03:28:24;19.47;;;12.50;;
15327;SDS011;7764;51.430;6.840;2023-01-28T03:31:11;16.77;;;11.13;;
15327;SDS011;7764;51.430;6.840;2023-01-28T03:33:58;15.63;;;10.50;;
15327;SDS011;7764;51.430;6.840;2023-01-28T03:36:44;14.20;;;10.73;;
15327;SDS011;7764;51.430;6.840;2023-01-28T03:39:16;16.30;;;11.83;;
15327;SDS011;7764;51.430;6.840;2023-01-28T03:41:54;14.23;;;10.67;;
15327;SDS011;7764;51.430;6.840;2023-01-28T03:44:22;16.33;;;11.83;;
15327;SDS011;7764;51.430;6.840;2023-01-28T03:47:07;15.17;;;11.47;;
15327;SDS011;7764;51.430;6.840;2023-01-28T03:49:38;16.13;;;11.20;;
15327;SDS011;7764;51.430;6.840;2023-01-28T03:52:05;16.40;;;11.67;;
15327;SDS011;7764;51.430;6.840;2023-01-28T03:54:32;17.90;;;12.83;;
15327;SDS011;7764;51.430;6.840;2023-01-28T03:56:59;16.60;;;12.53;;
15327;SDS011;7764;51.430;6.840;2023-01-28T03:59:26;17.80;;;12.73;;
15327;SDS011;7764;51.430;6.840;2023-01-28T04:01:53;17.03;;;12.47;;
15327;SDS011;7764;51.430;6.840;2023-01-28T04:04:20;17.57;;;12.63;;
15327;SDS011;7764;51.430;6.840;2023-01-28T04:06:50;17.20;;;12.63;;
15327;SDS011;7764;51.430;6.840;2023-01-28T04:09:18;17.70;;;12.83;;
15327;SDS011;7764;51.430;6.840;2023-01-28T04:11:45;18.87;;;14.33;;
15327;SDS011;7764;51.430;6.840;2023-01-28T04:14:12;17.87;;;12.63;;
15327;SDS011;7764;51.430;6.840;2023-01-28T04:16:39;18.20;;;12.70;;
15327;SDS011;7764;51.430;6.840;2023-01-28T04:19:07;19.20;;;12.60;;
15327;SDS011;7764;51.430;6.840;2023-01-28T04:21:34;16.27;;;12.37;;
15327;SDS011;7764;51.430;6.840;2023-01-28T04:24:02;19.97;;;13.37;;
15327;SDS011;7764;51.430;6.840;2023-01-28T04:26:30;20.07;;;13.80;;
15327;SDS011;7764;51.430;6.840;2023-01-28T04:28:57;19.37;;;13.93;;
15327;SDS011;7764;51.430;6.840;2023-01-28T04:31:24;18.00;;;13.60;;
15327;SDS011;7764;51.430;6.840;2023-01-28T04:33:50;18.63;;;14.00;;
15327;SDS011;7764;51.430;6.840;2023-01-28T04:36:17;17.37;;;13.37;;
15327;SDS011;7764;51.430;6.840;2023-01-28T04:38:44;19.83;;;14.73;;
15327;SDS011;7764;51.430;6.840;2023-01-28T04:41:12;17.77;;;13.83;;
15327;SDS011;7764;51.430;6.840;2023-01-28T04:43:39;17.40;;;13.23;;
15327;SDS011;7764;51.430;6.840;2023-01-28T04:46:06;18.70;;;14.27;;
15327;SDS011;7764;51.430;6.840;2023-01-28T04:48:33;17.77;;;13.50;;
15327;SDS011;7764;51.430;6.840;2023-01-28T04:51:00;18.37;;;12.97;;
15327;SDS011;7764;51.430;6.840;2023-01-28T04:53:27;17.07;;;12.90;;
15327;SDS011;7764;51.430;6.840;2023-01-28T04:55:55;16.90;;;12.70;;
15327;SDS011;7764;51.430;6.840;2023-01-28T04:58:23;17.37;;;13.23;;
15327;SDS011;7764;51.430;6.840;2023-01-28T05:00:52;17.30;;;12.87;;
15327;SDS011;7764;51.430;6.840;2023-01-28T05:03:20;17.70;;;13.33;;
15327;SDS011;7764;51.430;6.840;2023-01-28T05:05:47;21.47;;;14.87;;
15327;SDS011;7764;51.430;6.840;2023-01-28T05:08:15;18.63;;;13.30;;
15327;SDS011;7764;51.430;6.840;2023-01-28T05:10:42;19.87;;;14.27;;
15327;SDS011;7764;51.430;6.840;2023-01-28T05:13:09;19.53;;;13.87;;
15327;SDS011;7764;51.430;6.840;2023-01-28T05:15:37;19.73;;;14.30;;
15327;SDS011;7764;51.430;6.840;2023-01-28T05:18:04;19.93;;;14.00;;
15327;SDS011;7764;51.430;6.840;2023-01-28T05:20:31;19.87;;;14.63;;
15327;SDS011;7764;51.430;6.840;2023-01-28T05:22:58;18.30;;;13.90;;
15327;SDS011;7764;51.430;6.840;2023-01-28T05:25:25;19.70;;;13.77;;
15327;SDS011;7764;51.430;6.840;2023-01-28T05:27:52;20.63;;;13.87;;
15327;SDS011;7764;51.430;6.840;2023-01-28T05:30:19;19.50;;;14.53;;
15327;SDS011;7764;51.430;6.840;2023-01-28T05:32:47;20.63;;;14.53;;
15327;SDS011;7764;51.430;6.840;2023-01-28T05:35:14;21.03;;;14.80;;
15327;SDS011;7764;51.430;6.840;2023-01-28T05:37:41;22.27;;;16.13;;
15327;SDS011;7764;51.430;6.840;2023-01-28T05:40:09;22.67;;;15.80;;
15327;SDS011;7764;51.430;6.840;2023-01-28T05:42:36;22.57;;;15.60;;
15327;SDS011;7764;51.430;6.840;2023-01-28T05:45:03;22.93;;;15.00;;
15327;SDS011;7764;51.430;6.840;2023-01-28T05:47:32;22.90;;;15.50;;
15327;SDS011;7764;51.430;6.840;2023-01-28T05:50:00;22.20;;;16.03;;
15327;SDS011;7764;51.430;6.840;2023-01-28T05:52:27;20.03;;;13.40;;
15327;SDS011;7764;51.430;6.840;2023-01-28T05:54:53;21.87;;;15.97;;
15327;SDS011;7764;51.430;6.840;2023-01-28T05:57:20;23.03;;;15.87;;
15327;SDS011;7764;51.430;6.840;2023-01-28T05:59:47;22.17;;;15.67;;
15327;SDS011;7764;51.430;6.840;2023-01-28T06:02:14;21.60;;;15.43;;
15327;SDS011;7764;51.430;6.840;2023-01-28T06:04:41;21.90;;;15.63;;
15327;SDS011;7764;51.430;6.840;2023-01-28T06:07:09;23.37;;;15.90;;
15327;SDS011;7764;51.430;6.840;2023-01-28T06:09:37;22.40;;;15.43;;
15327;SDS011;7764;51.430;6.840;2023-01-28T06:12:04;23.27;;;16.30;;
15327;SDS011;7764;51.430;6.840;2023-01-28T06:14:32;24.83;;;17.50;;
15327;SDS011;7764;51.430;6.840;2023-01-28T06:16:58;24.33;;;17.30;;
15327;SDS011;7764;51.430;6.840;2023-01-28T06:19:25;22.23;;;16.60;;
15327;SDS011;7764;51.430;6.840;2023-01-28T06:21:52;22.97;;;16.17;;
15327;SDS011;7764;51.430;6.840;2023-01-28T06:24:20;21.80;;;15.57;;
15327;SDS011;7764;51.430;6.840;2023-01-28T06:26:47;22.67;;;16.00;;
15327;SDS011;7764;51.430;6.840;2023-01-28T06:29:16;22.70;;;16.23;;
15327;SDS011;7764;51.430;6.840;2023-01-28T06:31:43;23.87;;;16.13;;
15327;SDS011;7764;51.430;6.840;2023-01-28T06:34:10;22.57;;;16.83;;
15327;SDS011;7764;51.430;6.840;2023-01-28T06:36:37;22.83;;;16.43;;
15327;SDS011;7764;51.430;6.840;2023-01-28T06:39:04;23.60;;;16.57;;
15327;SDS011;7764;51.430;6.840;2023-01-28T06:41:32;25.80;;;16.87;;
15327;SDS011;7764;51.430;6.840;2023-01-28T06:43:59;24.77;;;16.37;;
15327;SDS011;7764;51.430;6.840;2023-01-28T06:46:26;23.47;;;16.57;;
15327;SDS011;7764;51.430;6.840;2023-01-28T06:48:53;23.33;;;16.70;;
15327;SDS011;7764;51.430;6.840;2023-01-28T06:51:20;25.00;;;17.73;;
15327;SDS011;7764;51.430;6.840;2023-01-28T06:53:47;23.83;;;17.17;;
15327;SDS011;7764;51.430;6.840;2023-01-28T06:56:13;24.43;;;17.70;;
15327;SDS011;7764;51.430;6.840;2023-01-28T06:58:42;24.43;;;16.53;;
15327;SDS011;7764;51.430;6.840;2023-01-28T07:01:08;27.90;;;18.03;;
15327;SDS011;7764;51.430;6.840;2023-01-28T07:03:35;25.50;;;17.70;;
15327;SDS011;7764;51.430;6.840;2023-01-28T07:06:02;25.67;;;17.47;;
15327;SDS011;7764;51.430;6.840;2023-01-28T07:08:29;28.63;;;16.90;;
15327;SDS011;7764;51.430;6.840;2023-01-28T07:10:57;24.37;;;17.17;;
15327;SDS011;7764;51.430;6.840;2023-01-28T07:13:24;24.27;;;16.97;;
15327;SDS011;7764;51.430;6.840;2023-01-28T07:15:52;24.63;;;17.33;;
15327;SDS011;7764;51.430;6.840;2023-01-28T07:18:19;23.70;;;16.67;;
15327;SDS011;7764;51.430;6.840;2023-01-28T07:20:46;24.00;;;16.33;;
15327;SDS011;7764;51.430;6.840;2023-01-28T07:23:13;23.83;;;17.10;;
15327;SDS011;7764;51.430;6.840;2023-01-28T07:25:40;22.50;;;16.43;;
15327;SDS011;7764;51.430;6.840;2023-01-28T07:28:07;24.13;;;17.33;;
15327;SDS011;7764;51.430;6.840;2023-01-28T07:30:34;23.17;;;16.60;;
15327;SDS011;7764;51.430;6.840;2023-01-28T07:33:02;24.80;;;16.90;;
15327;SDS011;7764;51.430;6.840;2023-01-28T07:35:29;22.33;;;15.67;;
15327;SDS011;7764;51.430;6.840;2023-01-28T07:37:57;21.70;;;16.50;;
15327;SDS011;7764;51.430;6.840;2023-01-28T07:40:26;21.83;;;16.07;;
15327;SDS011;7764;51.430;6.840;2023-01-28T07:42:53;23.00;;;15.80;;
15327;SDS011;7764;51.430;6.840;2023-01-28T07:45:21;22.13;;;16.33;;
15327;SDS011;7764;51.430;6.840;2023-01-28T07:47:52;21.40;;;15.80;;
15327;SDS011;7764;51.430;6.840;2023-01-28T07:50:21;26.20;;;17.27;;
15327;SDS011;7764;51.430;6.840;2023-01-28T07:52:48;25.87;;;17.20;;
15327;SDS011;7764;51.430;6.840;2023-01-28T07:55:15;23.13;;;16.97;;
15327;SDS011;7764;51.430;6.840;2023-01-28T07:57:49;23.87;;;16.93;;
15327;SDS011;7764;51.430;6.840;2023-01-28T08:00:17;23.23;;;16.83;;
15327;SDS011;7764;51.430;6.840;2023-01-28T08:02:45;22.87;;;17.00;;
15327;SDS011;7764;51.430;6.840;2023-01-28T08:05:14;24.00;;;17.57;;
15327;SDS011;7764;51.430;6.840;2023-01-28T08:07:43;21.93;;;16.03;;
15327;SDS011;7764;51.430;6.840;2023-01-28T08:10:12;23.70;;;17.10;;
15327;SDS011;7764;51.430;6.840;2023-01-28T08:12:40;23.67;;;17.47;;
15327;SDS011;7764;51.430;6.840;2023-01-28T08:15:15;24.27;;;17.47;;
15327;SDS011;7764;51.430;6.840;2023-01-28T08:17:42;23.73;;;17.07;;
15327;SDS011;7764;51.430;6.840;2023-01-28T08:20:09;24.47;;;17.93;;
15327;SDS011;7764;51.430;6.840;2023-01-28T08:22:37;27.20;;;18.27;;
15327;SDS011;7764;51.430;6.840;2023-01-28T08:25:06;27.37;;;19.00;;
15327;SDS011;7764;51.430;6.840;2023-01-28T08:27:33;27.20;;;18.63;;
15327;SDS011;7764;51.430;6.840;2023-01-28T08:30:00;27.80;;;18.60;;
15327;SDS011;7764;51.430;6.840;2023-01-28T08:32:27;29.30;;;20.37;;
15327;SDS011;7764;51.430;6.840;2023-01-28T08:34:54;25.57;;;18.83;;
15327;SDS011;7764;51.430;6.840;2023-01-28T08:37:21;26.53;;;19.20;;
15327;SDS011;7764;51.430;6.840;2023-01-28T08:39:48;25.63;;;18.60;;
15327;SDS011;7764;51.430;6.840;2023-01-28T08:42:17;26.23;;;19.13;;
15327;SDS011;7764;51.430;6.840;2023-01-28T08:44:44;26.50;;;19.00;;
15327;SDS011;7764;51.430;6.840;2023-01-28T08:47:12;26.80;;;19.07;;
15327;SDS011;7764;51.430;6.840;2023-01-28T08:49:39;27.73;;;19.70;;
15327;SDS011;7764;51.430;6.840;2023-01-28T08:52:05;31.97;;;20.07;;
15327;SDS011;7764;51.430;6.840;2023-01-28T08:54:32;29.20;;;19.13;;
15327;SDS011;7764;51.430;6.840;2023-01-28T08:57:00;31.87;;;20.57;;
15327;SDS011;7764;51.430;6.840;2023-01-28T08:59:28;29.90;;;19.77;;
15327;SDS011;7764;51.430;6.840;2023-01-28T09:01:55;37.73;;;23.10;;
15327;SDS011;7764;51.430;6.840;2023-01-28T09:04:22;27.43;;;18.27;;
15327;SDS011;7764;51.430;6.840;2023-01-28T09:06:49;36.17;;;22.33;;
15327;SDS011;7764;51.430;6.840;2023-01-28T09:09:16;170.27;;;46.63;;
15327;SDS011;7764;51.430;6.840;2023-01-28T09:11:43;33.77;;;21.27;;
15327;SDS011;7764;51.430;6.840;2023-01-28T09:14:10;30.23;;;19.77;;
15327;SDS011;7764;51.430;6.840;2023-01-28T09:16:38;37.93;;;21.83;;
15327;SDS011;7764;51.430;6.840;2023-01-28T09:19:05;34.10;;;20.87;;
15327;SDS011;7764;51.430;6.840;2023-01-28T09:21:31;29.80;;;19.57;;
15327;SDS011;7764;51.430;6.840;2023-01-28T09:23:58;28.60;;;20.47;;
15327;SDS011;7764;51.430;6.840;2023-01-28T09:26:25;30.43;;;20.37;;
15327;SDS011;7764;51.430;6.840;2023-01-28T09:28:52;32.03;;;21.33;;
15327;SDS011;7764;51.430;6.840;2023-01-28T09:31:19;30.57;;;20.53;;
15327;SDS011;7764;51.430;6.840;2023-01-28T09:33:47;37.27;;;23.13;;
15327;SDS011;7764;51.430;6.840;2023-01-28T09:36:18;29.60;;;20.20;;
15327;SDS011;7764;51.430;6.840;2023-01-28T09:38:45;30.77;;;21.20;;
15327;SDS011;7764;51.430;6.840;2023-01-28T09:41:18;29.27;;;20.67;;
15327;SDS011;7764;51.430;6.840;2023-01-28T09:44:00;29.30;;;20.63;;
15327;SDS011;7764;51.430;6.840;2023-01-28T09:46:32;28.77;;;20.47;;
15327;SDS011;7764;51.430;6.840;2023-01-28T09:49:04;31.33;;;20.80;;
15327;SDS011;7764;51.430;6.840;2023-01-28T09:51:41;32.33;;;20.93;;
15327;SDS011;7764;51.430;6.840;2023-01-28T09:54:13;30.30;;;19.77;;
15327;SDS011;7764;51.430;6.840;2023-01-28T09:56:50;29.73;;;19.80;;
15327;SDS011;7764;51.430;6.840;2023-01-28T09:59:23;30.80;;;20.47;;
15327;SDS011;7764;51.430;6.840;2023-01-28T10:01:52;31.10;;;19.67;;
15327;SDS011;7764;51.430;6.840;2023-01-28T10:04:28;30.73;;;20.33;;
15327;SDS011;7764;51.430;6.840;2023-01-28T10:07:13;28.43;;;19.63;;
15327;SDS011;7764;51.430;6.840;2023-01-28T10:09:51;27.47;;;19.23;;
15327;SDS011;7764;51.430;6.840;2023-01-28T10:12:24;30.20;;;20.10;;
15327;SDS011;7764;51.430;6.840;2023-01-28T10:15:09;29.37;;;20.50;;
15327;SDS011;7764;51.430;6.840;2023-01-28T10:17:49;31.47;;;20.73;;
15327;SDS011;7764;51.430;6.840;2023-01-28T10:20:21;27.47;;;18.90;;
15327;SDS011;7764;51.430;6.840;2023-01-28T10:22:53;30.83;;;20.13;;
15327;SDS011;7764;51.430;6.840;2023-01-28T10:25:24;30.80;;;19.40;;
15327;SDS011;7764;51.430;6.840;2023-01-28T10:27:53;28.70;;;18.80;;
15327;SDS011;7764;51.430;6.840;2023-01-28T10:30:21;30.03;;;19.20;;
15327;SDS011;7764;51.430;6.840;2023-01-28T10:32:50;31.13;;;21.13;;
15327;SDS011;7764;51.430;6.840;2023-01-28T10:35:20;29.13;;;20.50;;
15327;SDS011;7764;51.430;6.840;2023-01-28T10:37:48;32.93;;;21.67;;
15327;SDS011;7764;51.430;6.840;2023-01-28T10:40:18;30.40;;;21.43;;
15327;SDS011;7764;51.430;6.840;2023-01-28T10:42:45;32.93;;;23.40;;
15327;SDS011;7764;51.430;6.840;2023-01-28T10:45:15;44.40;;;28.27;;
15327;SDS011;7764;51.430;6.840;2023-01-28T10:47:45;31.07;;;21.13;;
15327;SDS011;7764;51.430;6.840;2023-01-28T10:50:16;32.57;;;21.67;;
15327;SDS011;7764;51.430;6.840;2023-01-28T10:52:52;28.43;;;18.27;;
15327;SDS011;7764;51.430;6.840;2023-01-28T10:55:20;30.27;;;20.53;;
15327;SDS011;7764;51.430;6.840;2023-01-28T10:57:48;29.73;;;20.77;;
15327;SDS011;7764;51.430;6.840;2023-01-28T11:00:21;30.47;;;21.33;;
15327;SDS011;7764;51.430;6.840;2023-01-28T11:02:50;31.53;;;21.47;;
15327;SDS011;7764;51.430;6.840;2023-01-28T11:05:19;30.90;;;20.43;;
15327;SDS011;7764;51.430;6.840;2023-01-28T11:08:01;29.83;;;20.43;;
15327;SDS011;7764;51.430;6.840;2023-01-28T11:10:29;29.67;;;19.93;;
15327;SDS011;7764;51.430;6.840;2023-01-28T11:12:59;31.07;;;20.13;;
15327;SDS011;7764;51.430;6.840;2023-01-28T11:15:27;28.83;;;20.23;;
15327;SDS011;7764;51.430;6.840;2023-01-28T11:17:55;27.30;;;17.97;;
15327;SDS011;7764;51.430;6.840;2023-01-28T11:20:25;30.40;;;20.87;;
15327;SDS011;7764;51.430;6.840;2023-01-28T11:22:54;32.97;;;19.93;;
15327;SDS011;7764;51.430;6.840;2023-01-28T11:25:23;28.57;;;19.20;;
15327;SDS011;7764;51.430;6.840;2023-01-28T11:27:55;30.70;;;20.97;;
15327;SDS011;7764;51.430;6.840;2023-01-28T11:30:23;32.43;;;22.20;;
15327;SDS011;7764;51.430;6.840;2023-01-28T11:32:55;31.87;;;21.13;;
15327;SDS011;7764;51.430;6.840;2023-01-28T11:35:26;29.73;;;20.90;;
15327;SDS011;7764;51.430;6.840;2023-01-28T11:37:55;34.80;;;20.93;;
15327;SDS011;7764;51.430;6.840;2023-01-28T11:40:23;31.83;;;21.00;;
15327;SDS011;7764;51.430;6.840;2023-01-28T11:42:51;30.90;;;20.93;;
15327;SDS011;7764;51.430;6.840;2023-01-28T11:45:23;29.67;;;20.60;;
15327;SDS011;7764;51.430;6.840;2023-01-28T11:48:02;31.30;;;20.00;;
15327;SDS011;7764;51.430;6.840;2023-01-28T11:50:44;28.70;;;19.27;;
15327;SDS011;7764;51.430;6.840;2023-01-28T11:53:27;26.57;;;18.00;;
15327;SDS011;7764;51.430;6.840;2023-01-28T11:56:13;27.07;;;17.80;;
15327;SDS011;7764;51.430;6.840;2023-01-28T11:59:01;28.07;;;18.53;;
15327;SDS011;7764;51.430;6.840;2023-01-28T12:01:39;27.87;;;19.17;;
15327;SDS011;7764;51.430;6.840;2023-01-28T12:04:17;28.50;;;19.37;;
15327;SDS011;7764;51.430;6.840;2023-01-28T12:06:54;27.20;;;17.20;;
15327;SDS011;7764;51.430;6.840;2023-01-28T12:09:37;31.13;;;18.53;;
15327;SDS011;7764;51.430;6.840;2023-01-28T12:12:15;27.10;;;18.77;;
15327;SDS011;7764;51.430;6.840;2023-01-28T12:14:56;33.83;;;19.47;;
15327;SDS011;7764;51.430;6.840;2023-01-28T12:17:48;29.03;;;19.10;;
15327;SDS011;7764;51.430;6.840;2023-01-28T12:20:25;28.90;;;18.53;;
15327;SDS011;7764;51.430;6.840;2023-01-28T12:23:01;30.37;;;20.77;;
15327;SDS011;7764;51.430;6.840;2023-01-28T12:25:38;37.00;;;23.83;;
15327;SDS011;7764;51.430;6.840;2023-01-28T12:28:17;33.53;;;23.13;;
15327;SDS011;7764;51.430;6.840;2023-01-28T12:30:59;35.20;;;23.50;;
15327;SDS011;7764;51.430;6.840;2023-01-28T12:33:43;37.80;;;23.70;;
15327;SDS011;7764;51.430;6.840;2023-01-28T12:36:22;36.13;;;23.90;;
15327;SDS011;7764;51.430;6.840;2023-01-28T12:39:00;35.87;;;23.20;;
15327;SDS011;7764;51.430;6.840;2023-01-28T12:41:36;34.87;;;23.90;;
15327;SDS011;7764;51.430;6.840;2023-01-28T12:44:09;36.30;;;23.13;;
15327;SDS011;7764;51.430;6.840;2023-01-28T12:46:40;34.87;;;22.67;;
15327;SDS011;7764;51.430;6.840;2023-01-28T12:49:12;35.70;;;24.57;;
15327;SDS011;7764;51.430;6.840;2023-01-28T12:51:52;37.47;;;24.53;;
15327;SDS011;7764;51.430;6.840;2023-01-28T12:54:27;38.50;;;24.43;;
15327;SDS011;7764;51.430;6.840;2023-01-28T12:57:00;35.27;;;23.43;;
15327;SDS011;7764;51.430;6.840;2023-01-28T12:59:29;36.47;;;23.73;;
15327;SDS011;7764;51.430;6.840;2023-01-28T13:02:05;36.00;;;23.93;;
15327;SDS011;7764;51.430;6.840;2023-01-28T13:04:46;34.23;;;24.00;;
15327;SDS011;7764;51.430;6.840;2023-01-28T13:07:20;37.17;;;24.53;;
15327;SDS011;7764;51.430;6.840;2023-01-28T13:09:59;32.83;;;23.30;;
15327;SDS011;7764;51.430;6.840;2023-01-28T13:12:30;35.43;;;25.40;;
15327;SDS011;7764;51.430;6.840;2023-01-28T13:14:58;34.10;;;23.63;;
15327;SDS011;7764;51.430;6.840;2023-01-28T13:17:27;36.93;;;24.53;;
15327;SDS011;7764;51.430;6.840;2023-01-28T13:19:55;39.00;;;25.23;;
15327;SDS011;7764;51.430;6.840;2023-01-28T13:22:27;43.00;;;26.60;;
15327;SDS011;7764;51.430;6.840;2023-01-28T13:25:11;36.80;;;24.40;;
15327;SDS011;7764;51.430;6.840;2023-01-28T13:27:53;35.00;;;24.53;;
15327;SDS011;7764;51.430;6.840;2023-01-28T13:30:22;37.70;;;24.43;;
15327;SDS011;7764;51.430;6.840;2023-01-28T13:32:56;37.60;;;25.07;;
15327;SDS011;7764;51.430;6.840;2023-01-28T13:35:29;35.50;;;24.30;;
15327;SDS011;7764;51.430;6.840;2023-01-28T13:37:59;37.57;;;25.33;;
15327;SDS011;7764;51.430;6.840;2023-01-28T13:40:34;36.47;;;25.00;;
15327;SDS011;7764;51.430;6.840;2023-01-28T13:43:03;35.37;;;24.57;;
15327;SDS011;7764;51.430;6.840;2023-01-28T13:45:31;37.30;;;25.80;;
15327;SDS011;7764;51.430;6.840;2023-01-28T13:48:01;39.60;;;26.27;;
15327;SDS011;7764;51.430;6.840;2023-01-28T13:50:43;34.40;;;25.17;;
15327;SDS011;7764;51.430;6.840;2023-01-28T13:53:18;39.43;;;25.83;;
15327;SDS011;7764;51.430;6.840;2023-01-28T13:55:54;36.30;;;25.67;;
15327;SDS011;7764;51.430;6.840;2023-01-28T13:58:35;36.83;;;25.53;;
15327;SDS011;7764;51.430;6.840;2023-01-28T14:01:29;35.90;;;25.37;;
15327;SDS011;7764;51.430;6.840;2023-01-28T14:04:16;36.40;;;25.00;;
15327;SDS011;7764;51.430;6.840;2023-01-28T14:07:06;40.60;;;25.53;;
15327;SDS011;7764;51.430;6.840;2023-01-28T14:10:02;38.33;;;25.57;;
15327;SDS011;7764;51.430;6.840;2023-01-28T14:12:52;39.93;;;25.80;;
15327;SDS011;7764;51.430;6.840;2023-01-28T14:18:27;37.03;;;24.90;;
15327;SDS011;7764;51.430;6.840;2023-01-28T14:20:59;37.23;;;25.30;;
15327;SDS011;7764;51.430;6.840;2023-01-28T14:23:28;37.73;;;26.33;;
15327;SDS011;7764;51.430;6.840;2023-01-28T14:26:09;35.93;;;25.57;;
15327;SDS011;7764;51.430;6.840;2023-01-28T14:28:52;37.30;;;25.63;;
15327;SDS011;7764;51.430;6.840;2023-01-28T14:31:28;38.30;;;26.47;;
15327;SDS011;7764;51.430;6.840;2023-01-28T14:34:02;40.00;;;25.63;;
15327;SDS011;7764;51.430;6.840;2023-01-28T14:36:35;37.77;;;25.90;;
15327;SDS011;7764;51.430;6.840;2023-01-28T14:39:03;37.30;;;25.87;;
15327;SDS011;7764;51.430;6.840;2023-01-28T14:41:30;37.63;;;25.40;;
15327;SDS011;7764;51.430;6.840;2023-01-28T14:43:58;36.60;;;25.00;;
15327;SDS011;7764;51.430;6.840;2023-01-28T14:46:29;39.50;;;25.03;;
15327;SDS011;7764;51.430;6.840;2023-01-28T14:49:04;38.57;;;25.73;;
15327;SDS011;7764;51.430;6.840;2023-01-28T14:51:51;41.20;;;26.07;;
15327;SDS011;7764;51.430;6.840;2023-01-28T14:54:37;38.13;;;25.20;;
15327;SDS011;7764;51.430;6.840;2023-01-28T14:57:15;32.97;;;23.27;;
15327;SDS011;7764;51.430;6.840;2023-01-28T14:59:53;33.87;;;23.47;;
15327;SDS011;7764;51.430;6.840;2023-01-28T15:02:22;32.67;;;22.10;;
15327;SDS011;7764;51.430;6.840;2023-01-28T15:04:51;35.67;;;23.47;;
15327;SDS011;7764;51.430;6.840;2023-01-28T15:07:19;35.40;;;22.97;;